createdAt,value
2022-12-25T00:04:08.515Z,37.40
2022-12-25T00:09:14.883Z,37.70
2022-12-25T00:14:18.355Z,41.10
2022-12-25T00:19:20.031Z,40.80
2022-12-25T00:24:21.756Z,44.10
2022-12-25T00:29:23.468Z,54.40
2022-12-25T00:34:26.779Z,51.20
2022-12-25T00:39:28.571Z,49.90
2022-12-25T00:44:30.531Z,45.80
2022-12-25T00:49:32.406Z,41.70
2022-12-25T00:54:34.312Z,33.50
2022-12-25T00:59:35.966Z,30.30
2022-12-25T01:04:37.734Z,49.10
2022-12-25T01:09:58.446Z,42.00
2022-12-25T01:15:00.245Z,44.30
2022-12-25T01:20:02.515Z,47.80
2022-12-25T01:25:06.388Z,49.10
2022-12-25T01:30:09.005Z,45.20
2022-12-25T01:35:12.079Z,44.60
2022-12-25T01:40:14.127Z,43.50
2022-12-25T01:45:36.247Z,44.70
2022-12-25T01:50:42.382Z,39.10
2022-12-25T01:55:48.068Z,36.40
2022-12-25T02:00:51.507Z,35.40
2022-12-25T02:05:54.744Z,35.40
2022-12-25T02:10:56.539Z,34.30
2022-12-25T02:16:08.673Z,32.80
2022-12-25T02:21:22.709Z,33.20
2022-12-25T02:26:45.833Z,37.50
2022-12-25T02:32:05.763Z,35.50
2022-12-25T02:37:14.644Z,40.80
2022-12-25T02:42:47.206Z,40.00
2022-12-25T02:48:08.005Z,44.70
2022-12-25T02:53:29.488Z,41.90
2022-12-25T02:58:53.117Z,44.50
2022-12-25T03:04:16.920Z,43.40
2022-12-25T03:09:43.415Z,39.90
2022-12-25T03:15:03.952Z,38.40
2022-12-25T03:20:25.675Z,35.90
2022-12-25T03:25:47.108Z,34.70
2022-12-25T03:31:14.248Z,31.40
2022-12-25T03:36:31.006Z,33.10
2022-12-25T03:42:06.651Z,33.30
2022-12-25T03:47:34.926Z,34.10
2022-12-25T03:52:57.159Z,34.10
2022-12-25T03:58:17.849Z,33.70
2022-12-25T04:03:38.685Z,34.60
2022-12-25T04:08:59.363Z,34.80
2022-12-25T04:14:19.773Z,34.60
2022-12-25T04:19:40.376Z,33.90
2022-12-25T04:25:00.942Z,44.60
2022-12-25T04:30:21.365Z,79.00
2022-12-25T04:35:41.865Z,57.40
2022-12-25T04:40:43.849Z,91.00
2022-12-25T04:45:52.922Z,81.60
2022-12-25T04:50:55.145Z,46.60
2022-12-25T04:56:03.205Z,45.70
2022-12-25T05:01:05.819Z,66.50
2022-12-25T05:06:07.660Z,64.90
2022-12-25T05:11:12.583Z,61.30
2022-12-25T05:16:17.739Z,69.70
2022-12-25T05:21:20.094Z,39.20
2022-12-25T05:26:24.634Z,39.30
2022-12-25T05:31:26.388Z,53.00
2022-12-25T05:36:28.352Z,96.30
2022-12-25T05:41:34.253Z,67.70
2022-12-25T05:46:36.660Z,58.50
2022-12-25T05:51:38.556Z,67.10
2022-12-25T05:56:40.249Z,100.00
2022-12-25T06:01:42.339Z,95.60
2022-12-25T06:06:44.307Z,53.70
2022-12-25T06:11:46.001Z,48.70
2022-12-25T06:16:52.482Z,81.70
2022-12-25T06:21:55.717Z,49.80
2022-12-25T06:26:57.482Z,59.50
2022-12-25T06:31:59.295Z,81.00
2022-12-25T06:37:01.064Z,71.20
2022-12-25T06:42:03.308Z,52.20
2022-12-25T06:47:05.906Z,47.00
2022-12-25T06:52:07.731Z,54.20
2022-12-25T06:57:09.488Z,59.50
2022-12-25T07:02:19.616Z,79.10
2022-12-25T07:07:23.022Z,64.40
2022-12-25T07:12:24.915Z,56.60
2022-12-25T07:17:26.618Z,71.50
2022-12-25T07:22:30.152Z,61.70
2022-12-25T07:27:31.919Z,59.60
2022-12-25T07:32:33.661Z,72.70
2022-12-25T07:37:35.514Z,71.50
2022-12-25T07:42:37.209Z,75.90
2022-12-25T07:47:39.753Z,60.30
2022-12-25T07:52:43.829Z,58.70
2022-12-25T07:57:45.690Z,60.40
2022-12-25T08:03:09.511Z,68.60
2022-12-25T08:08:11.362Z,55.40
2022-12-25T08:13:14.790Z,53.40
2022-12-25T08:18:16.839Z,44.60
2022-12-25T08:23:18.530Z,40.10
2022-12-25T08:28:20.165Z,40.50
2022-12-25T08:33:21.995Z,37.90
2022-12-25T08:38:23.767Z,39.10
2022-12-25T08:43:25.424Z,35.90
2022-12-25T08:48:27.739Z,33.20
2022-12-25T08:53:29.515Z,38.60
2022-12-25T08:58:31.487Z,32.70
2022-12-25T09:03:34.122Z,38.50
2022-12-25T09:08:38.822Z,44.60
2022-12-25T09:13:42.807Z,34.10
2022-12-25T09:18:44.649Z,32.30
2022-12-25T09:23:46.392Z,33.00
2022-12-25T09:28:51.840Z,30.90
2022-12-25T09:33:58.099Z,35.80
2022-12-25T09:38:59.802Z,37.40
2022-12-25T09:44:11.408Z,34.10
2022-12-25T09:49:22.687Z,35.80
2022-12-25T09:54:46.142Z,30.80
2022-12-25T09:59:47.832Z,31.70
2022-12-25T10:05:11.106Z,33.80
2022-12-25T10:10:46.286Z,27.50
2022-12-25T10:16:17.293Z,22.10
2022-12-25T10:21:19.946Z,22.50
2022-12-25T10:26:25.237Z,28.90
2022-12-25T10:31:30.355Z,18.80
2022-12-25T10:36:33.394Z,18.60
2022-12-25T10:41:59.912Z,15.20
2022-12-25T10:47:04.485Z,17.90
2022-12-25T10:52:20.943Z,17.00
2022-12-25T10:57:25.361Z,20.40
2022-12-25T11:02:31.460Z,20.90
2022-12-25T11:07:46.472Z,22.60
2022-12-25T11:12:48.434Z,21.30
2022-12-25T11:17:50.144Z,19.20
2022-12-25T11:22:51.813Z,18.00
2022-12-25T11:27:59.045Z,33.80
2022-12-25T11:33:09.894Z,26.70
2022-12-25T11:38:11.602Z,21.70
2022-12-25T11:43:18.292Z,20.70
2022-12-25T11:48:28.151Z,17.20
2022-12-25T11:53:44.038Z,19.20
2022-12-25T11:58:52.255Z,17.10
2022-12-25T12:03:55.220Z,15.40
2022-12-25T12:09:14.551Z,13.00
2022-12-25T12:14:19.218Z,14.20
2022-12-25T12:19:31.475Z,13.50
2022-12-25T12:24:41.091Z,14.70
2022-12-25T12:29:50.053Z,12.50
2022-12-25T12:34:51.804Z,15.30
2022-12-25T12:39:55.111Z,14.90
2022-12-25T12:45:06.524Z,16.50
2022-12-25T12:50:29.065Z,18.60
2022-12-25T12:55:35.399Z,16.40
2022-12-25T13:01:02.846Z,13.60
2022-12-25T13:06:33.700Z,10.60
2022-12-25T13:11:41.277Z,13.40
2022-12-25T13:22:02.763Z,16.20
2022-12-25T13:27:32.576Z,15.80
2022-12-25T13:32:35.006Z,17.00
2022-12-25T13:37:37.116Z,16.50
2022-12-25T13:42:41.863Z,18.10
2022-12-25T13:47:48.661Z,18.70
2022-12-25T13:52:57.362Z,20.80
2022-12-25T13:58:02.399Z,25.30
2022-12-25T14:03:14.020Z,20.80
2022-12-25T14:08:21.792Z,23.00
2022-12-25T14:18:29.892Z,29.70
2022-12-25T14:23:43.035Z,21.80
2022-12-25T14:28:50.432Z,16.00
2022-12-25T14:33:54.200Z,65.90
2022-12-25T14:38:59.042Z,62.40
2022-12-25T14:44:04.013Z,39.00
2022-12-25T14:49:20.951Z,36.20
2022-12-25T14:54:23.548Z,42.30
2022-12-25T14:59:26.892Z,48.80
2022-12-25T15:04:29.792Z,60.30
2022-12-25T15:09:32.118Z,38.70
2022-12-25T15:14:36.617Z,36.80
2022-12-25T15:19:38.965Z,39.70
2022-12-25T15:24:40.906Z,29.40
2022-12-25T15:35:06.836Z,23.30
2022-12-25T15:40:11.811Z,32.20
2022-12-25T15:45:22.233Z,29.70
2022-12-25T15:50:24.571Z,40.40
2022-12-25T15:55:26.333Z,36.80
2022-12-25T16:00:28.031Z,54.70
2022-12-25T16:05:29.757Z,44.10
2022-12-25T16:10:36.773Z,49.90
2022-12-25T16:15:46.344Z,61.60
2022-12-25T16:20:48.113Z,118.40
2022-12-25T16:25:49.893Z,81.70
2022-12-25T16:30:51.557Z,67.90
2022-12-25T16:35:53.376Z,49.90
2022-12-25T16:40:57.975Z,45.70
2022-12-25T16:45:59.790Z,45.70
2022-12-25T16:51:08.200Z,37.30
2022-12-25T16:56:16.189Z,42.20
2022-12-25T17:01:21.263Z,42.10
2022-12-25T17:06:25.709Z,46.60
2022-12-25T17:11:29.957Z,38.30
2022-12-25T17:16:37.231Z,38.60
2022-12-25T17:21:39.126Z,51.10
2022-12-25T17:26:41.652Z,58.80
2022-12-25T17:31:43.440Z,56.10
2022-12-25T17:36:45.168Z,64.20
2022-12-25T17:41:49.997Z,56.90
2022-12-25T17:46:51.780Z,57.20
2022-12-25T17:51:53.967Z,57.70
2022-12-25T17:56:55.637Z,60.10
2022-12-25T18:01:57.676Z,57.10
2022-12-25T18:06:59.511Z,62.80
2022-12-25T18:12:01.240Z,64.90
2022-12-25T18:17:02.985Z,72.40
2022-12-25T18:22:04.786Z,71.80
2022-12-25T18:27:07.027Z,67.20
2022-12-25T18:32:08.801Z,63.90
2022-12-25T18:37:10.625Z,58.60
2022-12-25T18:42:31.341Z,53.90
2022-12-25T18:47:33.579Z,55.60
2022-12-25T18:52:48.335Z,58.30
2022-12-25T19:02:58.419Z,58.40
2022-12-25T19:08:00.090Z,60.20
2022-12-25T19:13:01.867Z,64.60
2022-12-25T19:18:04.039Z,62.40
2022-12-25T19:23:06.242Z,61.00
2022-12-25T19:28:07.857Z,63.50
2022-12-25T19:33:14.099Z,63.60
2022-12-25T19:38:20.281Z,80.40
2022-12-25T19:43:22.050Z,80.20
2022-12-25T19:48:24.458Z,68.00
2022-12-25T19:53:27.045Z,58.90
2022-12-25T19:58:29.781Z,75.40
2022-12-25T20:03:40.179Z,64.50
2022-12-25T20:08:49.020Z,66.10
2022-12-25T20:13:51.059Z,70.40
2022-12-25T20:18:53.501Z,68.80
2022-12-25T20:23:56.307Z,67.90
2022-12-25T20:28:59.434Z,62.10
2022-12-25T20:34:06.336Z,51.80
2022-12-25T20:39:10.827Z,51.90
2022-12-25T20:44:13.609Z,47.30
2022-12-25T20:49:17.842Z,48.10
2022-12-25T20:54:19.485Z,49.70
2022-12-25T20:59:21.204Z,50.30
2022-12-25T21:04:23.286Z,46.60
2022-12-25T21:09:24.986Z,45.00
2022-12-25T21:14:29.453Z,46.90
2022-12-25T21:19:31.299Z,48.00
2022-12-25T21:24:32.929Z,49.10
2022-12-25T21:29:34.673Z,54.60
2022-12-25T21:34:36.603Z,54.30
2022-12-25T21:39:40.399Z,55.70
2022-12-25T21:44:43.207Z,56.50
2022-12-25T21:50:03.821Z,49.80
2022-12-25T21:55:05.962Z,57.80
2022-12-25T22:00:08.651Z,79.20
2022-12-25T22:05:30.235Z,149.20
2022-12-25T22:10:32.004Z,89.60
2022-12-25T22:15:52.989Z,85.30
2022-12-25T22:20:54.788Z,179.80
2022-12-25T22:25:56.460Z,175.20
2022-12-25T22:31:04.120Z,101.20
2022-12-25T22:36:08.281Z,107.80
2022-12-25T22:41:10.087Z,64.00
2022-12-25T22:46:11.822Z,56.60
2022-12-25T22:51:13.598Z,58.70
2022-12-25T22:56:15.661Z,54.50
2022-12-25T23:01:17.377Z,53.00
2022-12-25T23:06:19.071Z,62.00
2022-12-25T23:11:20.937Z,61.10
2022-12-25T23:16:23.419Z,65.00
2022-12-25T23:21:45.704Z,67.40
2022-12-25T23:26:47.523Z,68.70
2022-12-25T23:31:53.599Z,64.90
2022-12-25T23:36:55.487Z,71.10
2022-12-25T23:41:57.702Z,60.70
2022-12-25T23:46:59.641Z,58.00
2022-12-25T23:52:01.771Z,68.00
2022-12-25T23:57:36.898Z,68.00
